createdAt,value
2023-03-13T00:00:38.225Z,152.30
2023-03-13T00:01:38.165Z,142.40
2023-03-13T00:02:38.164Z,109.70
2023-03-13T00:03:38.142Z,188.80
2023-03-13T00:04:38.208Z,261.40
2023-03-13T00:05:38.167Z,154.30
2023-03-13T00:06:38.121Z,143.10
2023-03-13T00:07:38.129Z,147.10
2023-03-13T00:08:38.081Z,142.70
2023-03-13T00:09:38.065Z,145.90
2023-03-13T00:10:38.132Z,146.00
2023-03-13T00:11:38.054Z,139.50
2023-03-13T00:12:38.158Z,140.20
2023-03-13T00:13:38.046Z,141.60
2023-03-13T00:14:38.032Z,143.80
2023-03-13T00:15:38.040Z,145.40
2023-03-13T00:16:38.075Z,136.60
2023-03-13T00:17:37.994Z,150.50
2023-03-13T00:18:37.976Z,141.00
2023-03-13T00:19:37.975Z,146.10
2023-03-13T00:20:37.994Z,141.70
2023-03-13T00:21:37.982Z,137.40
2023-03-13T00:22:37.934Z,252.30
2023-03-13T00:23:37.932Z,216.70
2023-03-13T00:24:37.915Z,143.90
2023-03-13T00:25:37.931Z,139.20
2023-03-13T00:26:37.868Z,142.60
2023-03-13T00:27:37.866Z,141.60
2023-03-13T00:28:37.859Z,139.60
2023-03-13T00:29:37.857Z,143.10
2023-03-13T00:30:37.933Z,146.40
2023-03-13T00:31:37.840Z,155.10
2023-03-13T00:32:37.880Z,144.30
2023-03-13T00:33:37.802Z,111.10
2023-03-13T00:34:37.787Z,388.70
2023-03-13T00:35:37.872Z,276.30
2023-03-13T00:36:37.763Z,134.10
2023-03-13T00:37:37.762Z,158.10
2023-03-13T00:38:37.741Z,164.20
2023-03-13T00:39:37.734Z,205.50
2023-03-13T00:40:37.756Z,144.30
2023-03-13T00:41:37.734Z,152.90
2023-03-13T00:42:37.727Z,148.70
2023-03-13T00:43:37.720Z,150.70
2023-03-13T00:44:37.684Z,154.00
2023-03-13T00:45:37.828Z,155.10
2023-03-13T00:46:37.699Z,151.60
2023-03-13T00:47:37.685Z,156.10
2023-03-13T00:48:37.634Z,160.30
2023-03-13T00:49:37.631Z,449.20
2023-03-13T00:50:37.655Z,159.90
2023-03-13T00:51:37.615Z,173.30
2023-03-13T00:52:37.591Z,163.40
2023-03-13T00:53:37.590Z,175.70
2023-03-13T00:54:37.562Z,172.00
2023-03-13T00:55:37.593Z,178.20
2023-03-13T00:56:37.525Z,174.40
2023-03-13T00:57:37.520Z,189.70
2023-03-13T00:58:37.571Z,183.50
2023-03-13T00:59:37.512Z,187.70
2023-03-13T01:00:37.544Z,169.30
2023-03-13T01:01:37.502Z,185.70
2023-03-13T01:02:37.618Z,178.70
2023-03-13T01:03:37.492Z,173.60
2023-03-13T01:04:37.446Z,179.90
2023-03-13T01:05:37.483Z,184.50
2023-03-13T01:06:37.444Z,164.20
2023-03-13T01:07:37.409Z,160.00
2023-03-13T01:08:37.411Z,158.30
2023-03-13T01:09:37.394Z,159.50
2023-03-13T01:10:37.435Z,129.90
2023-03-13T01:11:37.391Z,1015.40
2023-03-13T01:12:37.382Z,232.70
2023-03-13T01:13:37.363Z,210.30
2023-03-13T01:14:37.350Z,163.60
2023-03-13T01:15:37.414Z,163.10
2023-03-13T01:16:37.308Z,176.10
2023-03-13T01:17:37.358Z,174.30
2023-03-13T01:18:37.299Z,169.20
2023-03-13T01:19:37.289Z,179.80
2023-03-13T01:20:37.306Z,167.90
2023-03-13T01:21:37.256Z,170.50
2023-03-13T01:22:37.259Z,187.60
2023-03-13T01:27:50.738Z,206.30
2023-03-13T01:28:50.727Z,359.00
2023-03-13T01:29:50.690Z,217.60
2023-03-13T01:30:50.729Z,140.10
2023-03-13T01:31:50.702Z,175.10
2023-03-13T01:32:50.739Z,181.80
2023-03-13T01:33:50.643Z,197.90
2023-03-13T01:34:50.673Z,298.40
2023-03-13T01:35:50.678Z,337.00
2023-03-13T01:36:50.664Z,226.10
2023-03-13T01:37:50.607Z,189.10
2023-03-13T01:38:50.602Z,235.60
2023-03-13T01:39:50.595Z,191.70
2023-03-13T01:40:50.559Z,187.50
2023-03-13T01:41:50.620Z,182.60
2023-03-13T01:42:50.625Z,176.00
2023-03-13T01:43:50.543Z,207.90
2023-03-13T01:44:50.536Z,182.20
2023-03-13T01:45:50.508Z,181.30
2023-03-13T01:46:50.530Z,198.00
2023-03-13T01:47:50.539Z,220.40
2023-03-13T01:48:50.491Z,755.50
2023-03-13T01:49:50.484Z,289.90
2023-03-13T01:50:50.468Z,188.50
2023-03-13T01:51:50.456Z,185.40
2023-03-13T01:52:50.481Z,219.80
2023-03-13T01:53:50.433Z,210.80
2023-03-13T01:54:50.412Z,242.60
2023-03-13T01:55:50.411Z,200.30
2023-03-13T01:56:50.407Z,256.40
2023-03-13T01:57:50.426Z,191.40
2023-03-13T01:58:50.388Z,197.20
2023-03-13T01:59:50.347Z,435.90
2023-03-13T02:00:50.353Z,222.50
2023-03-13T02:01:50.356Z,191.50
2023-03-13T02:02:50.399Z,196.30
2023-03-13T02:03:50.307Z,205.10
2023-03-13T02:04:50.297Z,211.30
2023-03-13T02:05:50.296Z,195.10
2023-03-13T02:06:50.271Z,201.00
2023-03-13T02:07:50.285Z,213.90
2023-03-13T02:08:50.255Z,200.00
2023-03-13T02:09:50.229Z,196.80
2023-03-13T02:10:50.243Z,250.50
2023-03-13T02:11:50.217Z,195.50
2023-03-13T02:12:50.240Z,202.30
2023-03-13T02:13:50.180Z,202.20
2023-03-13T02:14:50.185Z,204.30
2023-03-13T02:15:50.269Z,198.40
2023-03-13T02:16:50.149Z,207.50
2023-03-13T02:17:50.167Z,209.00
2023-03-13T02:18:50.125Z,200.90
2023-03-13T02:19:50.140Z,224.20
2023-03-13T02:20:50.109Z,204.40
2023-03-13T02:21:50.090Z,201.00
2023-03-13T02:22:50.123Z,205.40
2023-03-13T02:23:50.067Z,208.50
2023-03-13T02:24:50.056Z,211.90
2023-03-13T02:25:50.103Z,230.90
2023-03-13T02:26:50.058Z,209.00
2023-03-13T02:27:50.073Z,209.20
2023-03-13T02:28:50.016Z,200.70
2023-03-13T02:29:50.016Z,210.10
2023-03-13T02:30:49.993Z,212.00
2023-03-13T02:31:50.181Z,200.80
2023-03-13T02:32:50.061Z,204.70
2023-03-13T02:33:49.974Z,206.80
2023-03-13T02:34:49.979Z,200.10
2023-03-13T02:35:49.972Z,210.20
2023-03-13T02:36:49.925Z,216.70
2023-03-13T02:37:49.948Z,234.70
2023-03-13T02:38:49.918Z,217.00
2023-03-13T02:39:49.882Z,226.70
2023-03-13T02:40:49.867Z,218.00
2023-03-13T02:41:49.861Z,216.20
2023-03-13T02:42:49.903Z,234.70
2023-03-13T02:43:49.842Z,223.60
2023-03-13T02:44:49.850Z,232.60
2023-03-13T02:45:49.812Z,225.60
2023-03-13T02:46:49.988Z,217.10
2023-03-13T02:47:49.840Z,235.10
2023-03-13T02:48:49.770Z,217.40
2023-03-13T02:49:49.763Z,223.90
2023-03-13T02:50:49.756Z,218.00
2023-03-13T02:51:49.737Z,217.80
2023-03-13T02:52:49.883Z,205.40
2023-03-13T02:53:49.730Z,219.80
2023-03-13T02:54:49.710Z,212.70
2023-03-13T02:55:49.701Z,222.80
2023-03-13T02:56:49.708Z,214.60
2023-03-13T02:57:49.719Z,215.10
2023-03-13T02:58:50.652Z,212.30
2023-03-13T02:59:49.667Z,209.80
2023-03-13T03:00:49.738Z,210.90
2023-03-13T03:01:49.632Z,219.20
2023-03-13T03:02:49.663Z,215.00
2023-03-13T03:03:49.739Z,214.80
2023-03-13T03:04:49.606Z,223.00
2023-03-13T03:05:49.598Z,232.60
2023-03-13T03:06:49.577Z,222.30
2023-03-13T03:07:49.588Z,224.60
2023-03-13T03:08:49.599Z,215.60
2023-03-13T03:09:49.559Z,213.20
2023-03-13T03:10:49.537Z,222.40
2023-03-13T03:11:49.508Z,214.00
2023-03-13T03:12:49.520Z,225.70
2023-03-13T03:13:49.555Z,212.90
2023-03-13T03:14:49.496Z,211.80
2023-03-13T03:15:49.463Z,209.60
2023-03-13T03:16:49.510Z,208.20
2023-03-13T03:17:49.487Z,199.00
2023-03-13T03:18:49.473Z,198.50
2023-03-13T03:19:49.422Z,183.10
2023-03-13T03:20:49.434Z,185.20
2023-03-13T03:21:49.399Z,197.90
2023-03-13T03:22:49.384Z,198.30
2023-03-13T03:23:49.411Z,202.70
2023-03-13T03:24:49.356Z,200.20
2023-03-13T03:25:49.351Z,204.30
2023-03-13T03:26:49.344Z,204.60
2023-03-13T03:27:49.341Z,209.90
2023-03-13T03:28:49.348Z,221.10
2023-03-13T03:29:49.302Z,67.90
2023-03-13T03:30:49.291Z,158.20
2023-03-13T03:31:49.320Z,114.40
2023-03-13T03:32:49.334Z,233.60
2023-03-13T03:33:49.293Z,201.40
2023-03-13T03:34:49.256Z,203.30
2023-03-13T03:35:49.295Z,204.40
2023-03-13T03:36:49.248Z,195.80
2023-03-13T03:37:49.220Z,210.60
2023-03-13T03:38:49.262Z,207.30
2023-03-13T03:39:49.204Z,218.30
2023-03-13T03:40:49.167Z,204.60
2023-03-13T03:41:49.165Z,210.50
2023-03-13T03:42:49.149Z,208.70
2023-03-13T03:43:49.174Z,207.00
2023-03-13T03:44:49.137Z,210.00
2023-03-13T03:45:49.146Z,201.90
2023-03-13T03:46:49.183Z,222.60
2023-03-13T03:47:49.088Z,204.10
2023-03-13T03:48:49.107Z,206.10
2023-03-13T03:49:49.086Z,332.50
2023-03-13T03:50:49.058Z,259.40
2023-03-13T03:51:49.066Z,646.80
2023-03-13T03:52:49.024Z,308.90
2023-03-13T03:53:49.054Z,266.20
2023-03-13T03:54:49.011Z,186.40
2023-03-13T03:55:49.007Z,313.30
2023-03-13T03:56:48.995Z,284.80
2023-03-13T03:57:48.979Z,268.70
2023-03-13T03:58:48.970Z,287.10
2023-03-13T03:59:49.016Z,278.60
2023-03-13T04:00:48.960Z,256.50
2023-03-13T04:01:48.987Z,524.50
2023-03-13T04:02:48.955Z,260.30
2023-03-13T04:03:49.004Z,295.80
2023-03-13T04:04:48.937Z,283.50
2023-03-13T04:05:48.895Z,269.10
2023-03-13T04:06:48.867Z,273.80
2023-03-13T04:07:48.866Z,264.30
2023-03-13T04:08:48.843Z,278.90
2023-03-13T04:09:48.870Z,283.80
2023-03-13T04:10:48.824Z,280.70
2023-03-13T04:11:48.845Z,278.60
2023-03-13T04:12:48.796Z,269.20
2023-03-13T04:13:48.799Z,269.50
2023-03-13T04:14:48.837Z,913.60
2023-03-13T04:15:48.806Z,204.80
2023-03-13T04:16:48.855Z,258.80
2023-03-13T04:17:48.753Z,233.80
2023-03-13T04:18:48.732Z,268.40
2023-03-13T04:19:48.777Z,1006.90
2023-03-13T04:20:48.717Z,264.30
2023-03-13T04:21:48.712Z,257.00
2023-03-13T04:22:48.697Z,261.80
2023-03-13T04:23:48.710Z,1999.90
2023-03-13T04:24:48.699Z,208.00
2023-03-13T04:25:48.663Z,271.80
2023-03-13T04:26:48.647Z,250.60
2023-03-13T04:27:48.637Z,246.30
2023-03-13T04:28:48.624Z,247.50
2023-03-13T04:29:48.651Z,240.80
2023-03-13T04:30:48.660Z,239.30
2023-03-13T04:31:48.594Z,240.00
2023-03-13T04:32:48.609Z,270.30
2023-03-13T04:33:48.579Z,131.70
2023-03-13T04:34:48.587Z,202.60
2023-03-13T04:35:48.599Z,248.70
2023-03-13T04:36:48.536Z,224.60
2023-03-13T04:37:48.525Z,235.70
2023-03-13T04:38:48.513Z,222.20
2023-03-13T04:39:48.528Z,230.90
2023-03-13T04:40:48.503Z,232.30
2023-03-13T04:41:48.482Z,244.00
2023-03-13T04:42:48.474Z,257.20
2023-03-13T04:43:48.457Z,302.00
2023-03-13T04:44:48.486Z,172.70
2023-03-13T04:45:48.465Z,230.70
2023-03-13T04:46:48.426Z,250.30
2023-03-13T04:47:48.465Z,266.50
2023-03-13T04:48:48.404Z,244.00
2023-03-13T04:49:48.434Z,1999.90
2023-03-13T04:50:48.389Z,225.70
2023-03-13T04:51:48.368Z,235.10
2023-03-13T04:52:49.645Z,226.80
2023-03-13T04:53:48.362Z,233.60
2023-03-13T04:54:48.395Z,244.80
2023-03-13T04:55:48.317Z,207.80
2023-03-13T04:56:48.296Z,238.30
2023-03-13T04:57:48.305Z,244.50
2023-03-13T04:58:48.283Z,285.90
2023-03-13T04:59:48.282Z,219.20
2023-03-13T05:00:48.280Z,228.30
2023-03-13T05:01:48.258Z,212.90
2023-03-13T05:02:48.248Z,221.10
2023-03-13T05:03:48.357Z,208.10
2023-03-13T05:04:49.691Z,206.10
2023-03-13T05:05:48.379Z,216.50
2023-03-13T05:06:48.196Z,213.00
2023-03-13T05:07:48.191Z,1999.90
2023-03-13T05:08:48.165Z,227.20
2023-03-13T05:09:48.154Z,216.60
2023-03-13T05:10:48.196Z,206.60
2023-03-13T05:11:48.144Z,1999.90
2023-03-13T05:12:48.116Z,210.60
2023-03-13T05:13:48.248Z,216.00
2023-03-13T05:14:48.127Z,201.80
2023-03-13T05:15:48.187Z,193.40
2023-03-13T05:16:48.084Z,181.90
2023-03-13T05:17:48.112Z,183.70
2023-03-13T05:18:48.057Z,1999.90
2023-03-13T05:19:48.051Z,211.70
2023-03-13T05:20:48.061Z,203.90
2023-03-13T05:21:48.019Z,192.70
2023-03-13T05:22:48.009Z,186.50
2023-03-13T05:23:48.004Z,207.70
2023-03-13T05:24:47.992Z,187.10
2023-03-13T05:25:48.015Z,1999.90
2023-03-13T05:26:47.978Z,215.90
2023-03-13T05:27:47.969Z,190.40
2023-03-13T05:28:47.941Z,317.50
2023-03-13T05:29:48.058Z,171.70
2023-03-13T05:30:48.019Z,186.90
2023-03-13T05:31:47.905Z,157.10
2023-03-13T05:32:47.928Z,241.60
2023-03-13T05:33:47.883Z,158.00
2023-03-13T05:34:47.863Z,158.10
2023-03-13T05:35:47.917Z,164.20
2023-03-13T05:36:47.856Z,144.30
2023-03-13T05:37:47.853Z,318.10
2023-03-13T05:38:47.819Z,144.30
2023-03-13T05:39:47.831Z,138.10
2023-03-13T05:40:47.847Z,189.60
2023-03-13T05:41:47.801Z,142.10
2023-03-13T05:42:47.780Z,196.30
2023-03-13T05:43:47.778Z,147.60
2023-03-13T05:44:47.755Z,291.20
2023-03-13T05:45:47.790Z,1999.90
2023-03-13T05:46:47.798Z,221.80
2023-03-13T05:47:47.753Z,172.60
2023-03-13T05:48:47.715Z,142.80
2023-03-13T05:49:47.712Z,1999.90
2023-03-13T05:50:47.723Z,807.60
2023-03-13T05:51:47.688Z,179.50
2023-03-13T05:52:47.670Z,408.10
2023-03-13T05:53:47.668Z,175.30
2023-03-13T05:54:47.654Z,630.60
2023-03-13T05:55:47.683Z,433.70
2023-03-13T05:56:47.631Z,390.70
2023-03-13T05:57:47.638Z,694.50
2023-03-13T05:58:47.603Z,681.30
2023-03-13T05:59:47.612Z,377.60
2023-03-13T06:00:47.632Z,651.70
2023-03-13T06:01:47.567Z,683.40
2023-03-13T06:02:47.568Z,711.80
2023-03-13T06:03:47.698Z,1999.90
2023-03-13T06:04:47.619Z,1747.20
2023-03-13T06:05:47.572Z,1739.90
2023-03-13T06:06:47.512Z,1999.90
2023-03-13T06:07:47.516Z,1999.90
2023-03-13T06:08:47.493Z,1999.90
2023-03-13T06:09:47.501Z,1999.90
2023-03-13T06:10:47.518Z,1999.90
2023-03-13T06:11:47.474Z,1999.90
2023-03-13T06:12:47.443Z,1999.90
2023-03-13T06:13:47.439Z,1999.90
2023-03-13T06:14:47.454Z,1999.90
2023-03-13T06:15:47.532Z,1999.90
2023-03-13T06:16:47.400Z,1999.90
2023-03-13T06:17:47.387Z,1999.90
2023-03-13T06:18:47.381Z,1999.90
2023-03-13T06:19:47.385Z,1999.90
2023-03-13T06:20:47.371Z,1999.90
2023-03-13T06:21:47.342Z,1999.90
2023-03-13T06:22:47.330Z,1999.90
2023-03-13T06:23:47.324Z,1999.90
2023-03-13T06:24:47.307Z,1999.90
2023-03-13T06:25:47.329Z,1999.90
2023-03-13T06:26:49.564Z,1999.90
2023-03-13T06:27:47.275Z,1999.90
2023-03-13T06:28:47.268Z,1999.90
2023-03-13T06:29:47.259Z,1999.90
2023-03-13T06:30:47.259Z,1999.90
2023-03-13T06:31:47.444Z,1999.90
2023-03-13T06:32:47.435Z,1999.90
2023-03-13T06:33:49.072Z,1999.90
2023-03-13T06:34:47.196Z,1999.90
2023-03-13T06:35:56.257Z,1999.90
2023-03-13T06:36:48.210Z,1999.90
2023-03-13T06:37:47.178Z,1999.90
2023-03-13T06:38:47.125Z,1999.90
2023-03-13T06:39:47.147Z,1999.90
2023-03-13T06:40:48.023Z,1999.90
2023-03-13T06:41:47.120Z,1999.90
2023-03-13T06:42:47.098Z,192.40
2023-03-13T06:43:47.105Z,1999.90
2023-03-13T06:44:47.116Z,1999.90
2023-03-13T06:45:47.102Z,1999.90
2023-03-13T06:46:47.128Z,1999.90
2023-03-13T06:47:47.074Z,1999.90
2023-03-13T06:48:47.036Z,1999.90
2023-03-13T06:49:47.054Z,1999.90
2023-03-13T06:50:47.054Z,1999.90
2023-03-13T06:51:47.009Z,1999.90
2023-03-13T06:52:46.992Z,1999.90
2023-03-13T06:53:46.997Z,1999.90
2023-03-13T06:54:46.972Z,1999.90
2023-03-13T06:55:46.995Z,1999.90
2023-03-13T06:56:46.963Z,1999.90
2023-03-13T06:57:46.938Z,1999.90
2023-03-13T06:58:46.930Z,1999.90
2023-03-13T06:59:46.930Z,1999.90
2023-03-13T07:00:46.946Z,1999.90
2023-03-13T07:01:46.910Z,1999.90
2023-03-13T07:02:46.889Z,1999.90
2023-03-13T07:03:46.913Z,1999.90
2023-03-13T07:04:46.865Z,1999.90
2023-03-13T07:05:46.873Z,1999.90
2023-03-13T07:06:46.840Z,1999.90
2023-03-13T07:07:46.844Z,1999.90
2023-03-13T07:08:46.833Z,1999.90
2023-03-13T07:09:46.797Z,1999.90
2023-03-13T07:10:46.821Z,1999.90
2023-03-13T07:11:46.777Z,1999.90
2023-03-13T07:12:46.790Z,1999.90
2023-03-13T07:13:46.768Z,1999.90
2023-03-13T07:14:46.766Z,1999.90
2023-03-13T07:15:46.757Z,1999.90
2023-03-13T07:16:46.853Z,1999.90
2023-03-13T07:17:46.728Z,1999.90
2023-03-13T07:18:46.712Z,1999.90
2023-03-13T07:19:46.678Z,1999.90
2023-03-13T07:20:46.707Z,1999.90
2023-03-13T07:21:46.678Z,1999.90
2023-03-13T07:22:46.666Z,1999.90
2023-03-13T07:23:46.649Z,1999.90
2023-03-13T07:24:46.734Z,1999.90
2023-03-13T07:25:46.678Z,1999.90
2023-03-13T07:27:03.878Z,1999.90
2023-03-13T07:27:47.623Z,1999.90
2023-03-13T07:28:46.602Z,1999.90
2023-03-13T07:29:46.603Z,1999.90
2023-03-13T07:30:46.626Z,1999.90
2023-03-13T07:31:46.619Z,1999.90
2023-03-13T07:32:46.606Z,1999.90
2023-03-13T07:33:46.603Z,1999.90
2023-03-13T07:34:46.586Z,1999.90
2023-03-13T07:35:46.555Z,1999.90
2023-03-13T07:36:46.539Z,1999.90
2023-03-13T07:37:46.500Z,1999.90
2023-03-13T07:38:46.504Z,1999.90
2023-03-13T07:39:46.484Z,1999.90
2023-03-13T07:40:46.488Z,1999.90
2023-03-13T07:41:46.443Z,1999.90
2023-03-13T07:42:46.456Z,1999.90
2023-03-13T07:43:46.448Z,1999.90
2023-03-13T07:44:46.414Z,1387.70
2023-03-13T07:45:46.625Z,1999.90
2023-03-13T07:46:46.438Z,1081.60
2023-03-13T07:47:46.439Z,945.30
2023-03-13T07:48:46.414Z,796.70
2023-03-13T07:49:46.388Z,649.40
2023-03-13T07:50:46.378Z,850.80
2023-03-13T07:51:46.334Z,1065.90
2023-03-13T07:52:46.432Z,1999.90
2023-03-13T07:53:46.351Z,1999.90
2023-03-13T07:54:46.319Z,1999.90
2023-03-13T07:55:46.343Z,1999.90
2023-03-13T07:56:46.277Z,1999.90
2023-03-13T07:57:46.265Z,1999.90
2023-03-13T07:58:46.262Z,1999.90
2023-03-13T07:59:46.261Z,1999.90
2023-03-13T08:00:46.294Z,1999.90
2023-03-13T08:01:46.226Z,1999.90
2023-03-13T08:02:46.289Z,1999.90
2023-03-13T08:03:46.228Z,1999.90
2023-03-13T08:04:46.254Z,1999.90
2023-03-13T08:05:46.229Z,1999.90
2023-03-13T08:06:46.200Z,1999.90
2023-03-13T08:07:46.163Z,1999.90
2023-03-13T08:08:46.124Z,1999.90
2023-03-13T08:09:46.188Z,1999.90
2023-03-13T08:10:46.109Z,1999.90
2023-03-13T08:11:46.209Z,1999.90
2023-03-13T08:12:46.107Z,1999.90
2023-03-13T08:13:46.066Z,1999.90
2023-03-13T08:14:46.087Z,1999.90
2023-03-13T08:15:46.098Z,1999.90
2023-03-13T08:16:46.307Z,1999.90
2023-03-13T08:17:46.023Z,1999.90
2023-03-13T08:18:46.076Z,1534.10
2023-03-13T08:19:46.021Z,807.20
2023-03-13T08:20:46.022Z,933.70
2023-03-13T08:21:46.022Z,832.30
2023-03-13T08:22:46.011Z,400.70
2023-03-13T08:23:45.976Z,589.30
2023-03-13T08:24:45.963Z,413.70
2023-03-13T08:25:45.938Z,497.50
2023-03-13T08:26:45.976Z,1066.50
2023-03-13T08:27:45.932Z,447.20
2023-03-13T08:28:45.901Z,550.50
2023-03-13T08:29:45.886Z,559.90
2023-03-13T08:30:45.914Z,405.00
2023-03-13T08:31:45.944Z,672.60
2023-03-13T08:32:45.952Z,387.10
2023-03-13T08:33:45.854Z,87.40
2023-03-13T08:34:45.861Z,254.70
2023-03-13T08:35:45.884Z,66.80
2023-03-13T08:36:45.851Z,573.30
2023-03-13T08:37:45.821Z,272.30
2023-03-13T08:38:46.416Z,358.50
2023-03-13T08:39:45.777Z,593.70
2023-03-13T08:40:45.766Z,689.50
2023-03-13T08:41:45.776Z,300.40
2023-03-13T08:42:45.749Z,552.10
2023-03-13T08:43:45.736Z,672.20
2023-03-13T08:44:45.718Z,368.80
2023-03-13T08:45:45.783Z,134.50
2023-03-13T08:46:45.824Z,230.20
2023-03-13T08:47:45.678Z,174.60
2023-03-13T08:48:45.687Z,680.70
2023-03-13T08:49:45.688Z,446.10
2023-03-13T08:50:45.692Z,61.60
2023-03-13T08:51:45.669Z,58.00
2023-03-13T08:52:45.669Z,252.20
2023-03-13T08:53:45.648Z,61.70
2023-03-13T08:54:45.648Z,59.20
2023-03-13T08:55:45.606Z,92.60
2023-03-13T08:56:45.642Z,89.20
2023-03-13T08:57:45.606Z,102.70
2023-03-13T08:58:45.584Z,223.90
2023-03-13T08:59:45.572Z,67.40
2023-03-13T09:00:45.554Z,75.20
2023-03-13T09:01:45.605Z,79.00
2023-03-13T09:02:45.575Z,71.30
2023-03-13T09:03:45.646Z,90.00
2023-03-13T09:04:45.518Z,163.10
2023-03-13T09:05:55.745Z,91.30
2023-03-13T09:06:46.516Z,63.80
2023-03-13T09:07:45.482Z,70.40
2023-03-13T09:08:45.483Z,74.90
2023-03-13T09:09:45.463Z,57.80
2023-03-13T09:10:45.447Z,47.80
2023-03-13T09:11:45.469Z,47.60
2023-03-13T09:12:45.415Z,50.60
2023-03-13T09:13:45.401Z,53.80
2023-03-13T09:14:45.413Z,61.40
2023-03-13T09:15:45.443Z,75.00
2023-03-13T09:16:45.373Z,87.40
2023-03-13T09:17:45.400Z,89.50
2023-03-13T09:18:45.392Z,93.40
2023-03-13T09:19:57.843Z,98.80
2023-03-13T09:20:48.034Z,109.00
2023-03-13T09:21:45.320Z,95.30
2023-03-13T09:22:45.344Z,96.30
2023-03-13T09:23:45.303Z,101.10
2023-03-13T09:24:45.312Z,92.30
2023-03-13T09:25:45.286Z,93.30
2023-03-13T09:27:00.159Z,115.90
2023-03-13T09:27:46.312Z,96.30
2023-03-13T09:28:45.255Z,95.80
2023-03-13T09:29:45.241Z,191.80
2023-03-13T09:30:45.284Z,109.90
2023-03-13T09:31:45.227Z,113.80
2023-03-13T09:32:45.331Z,112.80
2023-03-13T09:33:45.210Z,105.70
2023-03-13T09:34:45.189Z,113.50
2023-03-13T09:35:45.177Z,319.20
2023-03-13T09:36:45.149Z,109.90
2023-03-13T09:37:45.168Z,113.70
2023-03-13T09:38:45.178Z,122.20
2023-03-13T09:39:45.118Z,111.40
2023-03-13T09:40:56.494Z,115.50
2023-03-13T09:41:46.091Z,109.40
2023-03-13T09:42:45.070Z,110.80
2023-03-13T09:43:45.080Z,119.60
2023-03-13T09:44:45.045Z,121.60
2023-03-13T09:45:45.053Z,118.20
2023-03-13T09:46:45.140Z,119.80
2023-03-13T09:47:45.048Z,128.80
2023-03-13T09:48:45.076Z,80.30
2023-03-13T09:49:45.011Z,72.20
2023-03-13T09:50:45.027Z,69.60
2023-03-13T09:51:44.961Z,68.60
2023-03-13T09:52:44.976Z,56.30
2023-03-13T09:53:44.956Z,65.00
2023-03-13T09:54:44.991Z,59.60
2023-03-13T09:55:44.933Z,81.20
2023-03-13T09:56:44.949Z,76.00
2023-03-13T09:57:44.945Z,87.30
2023-03-13T09:58:44.887Z,85.40
2023-03-13T09:59:44.912Z,118.60
2023-03-13T10:00:44.889Z,117.00
2023-03-13T10:01:44.981Z,217.30
2023-03-13T10:02:44.843Z,399.00
2023-03-13T10:03:44.874Z,147.30
2023-03-13T10:04:44.888Z,82.80
2023-03-13T10:05:44.819Z,358.10
2023-03-13T10:06:44.819Z,332.30
2023-03-13T10:07:44.819Z,199.30
2023-03-13T10:08:44.784Z,224.30
2023-03-13T10:09:44.951Z,1999.90
2023-03-13T10:10:44.772Z,1999.90
2023-03-13T10:11:44.784Z,169.70
2023-03-13T10:12:44.730Z,141.70
2023-03-13T10:13:44.724Z,85.10
2023-03-13T10:14:44.745Z,122.10
2023-03-13T10:15:44.754Z,407.90
2023-03-13T10:16:44.697Z,96.90
2023-03-13T10:17:44.709Z,325.20
2023-03-13T10:18:44.680Z,94.10
2023-03-13T10:19:44.703Z,205.00
2023-03-13T10:20:44.648Z,306.90
2023-03-13T10:21:44.627Z,73.00
2023-03-13T10:22:44.630Z,216.00
2023-03-13T10:23:44.630Z,74.40
2023-03-13T10:24:44.633Z,69.80
2023-03-13T10:25:44.592Z,70.10
2023-03-13T10:26:44.579Z,75.90
2023-03-13T10:27:44.584Z,168.50
2023-03-13T10:28:44.575Z,74.80
2023-03-13T10:29:44.592Z,117.20
2023-03-13T10:30:44.527Z,71.90
2023-03-13T10:31:44.641Z,76.90
2023-03-13T10:32:44.553Z,87.30
2023-03-13T10:33:44.522Z,82.30
2023-03-13T10:34:44.567Z,66.70
2023-03-13T10:35:44.537Z,141.50
2023-03-13T10:36:44.477Z,63.00
2023-03-13T10:37:44.465Z,64.00
2023-03-13T10:38:44.444Z,60.30
2023-03-13T10:39:44.532Z,58.10
2023-03-13T10:40:44.396Z,62.10
2023-03-13T10:41:44.455Z,57.80
2023-03-13T10:42:44.368Z,66.60
2023-03-13T10:43:44.370Z,72.30
2023-03-13T10:44:44.400Z,75.50
2023-03-13T10:45:44.359Z,149.00
2023-03-13T10:46:44.440Z,79.80
2023-03-13T10:47:44.354Z,179.80
2023-03-13T10:48:44.332Z,79.50
2023-03-13T10:49:44.368Z,364.40
2023-03-13T10:50:44.320Z,212.00
2023-03-13T10:51:44.293Z,307.50
2023-03-13T10:52:44.288Z,201.60
2023-03-13T10:53:44.275Z,354.20
2023-03-13T10:54:44.292Z,207.30
2023-03-13T10:55:44.242Z,603.20
2023-03-13T10:56:44.229Z,608.40
2023-03-13T10:57:44.240Z,565.10
2023-03-13T10:58:44.219Z,1999.90
2023-03-13T10:59:44.252Z,545.60
2023-03-13T11:00:44.197Z,533.10
2023-03-13T11:01:44.193Z,1999.90
2023-03-13T11:02:44.362Z,432.80
2023-03-13T11:03:44.221Z,285.90
2023-03-13T11:04:44.178Z,481.30
2023-03-13T11:05:44.146Z,1999.90
2023-03-13T11:06:44.113Z,412.70
2023-03-13T11:07:44.106Z,361.80
2023-03-13T11:08:44.115Z,358.30
2023-03-13T11:09:44.192Z,770.70
2023-03-13T11:10:44.069Z,663.30
2023-03-13T11:11:44.111Z,303.90
2023-03-13T11:12:44.048Z,662.50
2023-03-13T11:13:44.031Z,369.80
2023-03-13T11:14:44.069Z,502.20
2023-03-13T11:15:44.005Z,115.50
2023-03-13T11:16:44.041Z,424.90
2023-03-13T11:17:44.010Z,383.20
2023-03-13T11:18:43.989Z,232.40
2023-03-13T11:19:44.029Z,226.70
2023-03-13T11:20:43.955Z,540.80
2023-03-13T11:21:43.981Z,695.10
2023-03-13T11:22:43.926Z,726.40
2023-03-13T11:23:43.952Z,507.50
2023-03-13T11:24:43.946Z,1999.90
2023-03-13T11:25:43.916Z,1010.40
2023-03-13T11:26:55.104Z,400.80
2023-03-13T11:27:44.901Z,1051.80
2023-03-13T11:28:43.868Z,1999.90
2023-03-13T11:29:43.938Z,1999.90
2023-03-13T11:30:43.862Z,287.50
2023-03-13T11:31:43.923Z,463.20
2023-03-13T11:32:43.845Z,1999.90
2023-03-13T11:33:43.819Z,1999.90
2023-03-13T11:34:43.824Z,1999.90
2023-03-13T11:35:43.892Z,1999.90
2023-03-13T11:36:43.780Z,1999.90
2023-03-13T11:37:43.783Z,1999.90
2023-03-13T11:38:43.754Z,1999.90
2023-03-13T11:39:43.759Z,243.70
2023-03-13T11:40:43.789Z,1999.90
2023-03-13T11:41:43.786Z,1999.90
2023-03-13T11:42:43.747Z,1999.90
2023-03-13T11:43:43.688Z,1999.90
2023-03-13T11:44:43.680Z,1999.90
2023-03-13T11:45:43.749Z,1999.90
2023-03-13T11:46:43.819Z,1999.90
2023-03-13T11:47:43.663Z,1999.90
2023-03-13T11:48:43.661Z,1999.90
2023-03-13T11:49:43.632Z,1999.90
2023-03-13T11:50:43.665Z,1999.90
2023-03-13T11:51:43.651Z,1999.90
2023-03-13T11:52:43.601Z,1999.90
2023-03-13T11:53:43.580Z,1999.90
2023-03-13T11:54:43.583Z,1999.90
2023-03-13T11:55:43.629Z,1999.90
2023-03-13T11:56:43.546Z,1999.90
2023-03-13T11:57:43.538Z,1999.90
2023-03-13T11:58:43.536Z,1999.90
2023-03-13T11:59:43.515Z,1999.90
2023-03-13T12:00:43.591Z,1999.90
2023-03-13T12:01:45.522Z,1999.90
2023-03-13T12:02:43.548Z,1999.90
2023-03-13T12:03:43.567Z,1999.90
2023-03-13T12:04:43.656Z,1999.90
2023-03-13T12:05:43.501Z,1999.90
2023-03-13T12:06:43.424Z,1999.90
2023-03-13T12:07:43.433Z,1999.90
2023-03-13T12:08:43.406Z,1999.90
2023-03-13T12:09:43.423Z,1999.90
2023-03-13T12:10:43.428Z,1999.90
2023-03-13T12:11:43.373Z,1999.90
2023-03-13T12:12:43.383Z,1999.90
2023-03-13T12:13:43.365Z,1999.90
2023-03-13T12:14:43.331Z,1999.90
2023-03-13T12:15:43.362Z,1999.90
2023-03-13T12:16:43.380Z,1999.90
2023-03-13T12:17:43.523Z,1999.90
2023-03-13T12:18:43.298Z,228.80
2023-03-13T12:19:43.299Z,1999.90
2023-03-13T12:20:43.316Z,297.80
2023-03-13T12:21:43.344Z,1999.90
2023-03-13T12:22:43.238Z,1999.90
2023-03-13T12:23:43.294Z,159.20
2023-03-13T12:24:43.244Z,1999.90
2023-03-13T12:25:43.304Z,1097.30
2023-03-13T12:26:43.272Z,851.20
2023-03-13T12:27:43.214Z,1999.90
2023-03-13T12:28:43.174Z,426.20